Search for airport 
image banner adimage banner ad
image banner ad

DNMM - Lagos/Murtala Muhammed

Located in Lagos, Nigeria

ICAO - DNMM, IATA - LOS

Data provided by Airmate  

General information

Coordinates: N6°34'43" E3°19'21"
Elevation is 138 feet MSL.
 
Rated:
View ratings: [VIEW]


View others Airports in Lagos

Operational data

Open for public use
Current time UTC:
Current local time:
Weather
METAR: DNMM 122300Z 23005KT 210V360 9999 FEW008 24/23 Q1015 NOSIG
TAF: TAF DNMM 121700Z 1218/1324 VRB02KT 9999 SCT011 TEMPO 1305/1308 5000 BR BECMG 1308/1310 24010KT BKN012 TEMPO 1313/1318 SCT013 BECMG 1318/1320 VRB02KT SCT011
View NOTAMs / SUP AIP / TFR affecting this airport [VIEW]
Communications frequencies: [VIEW]

Runways:

RWY identifierQFULength (ft)Width (ft)SurfaceLDA (ft)
36L359°12795197
18R179°12794197ASP
36R359°9006148
18L179°9006148

Airport contact information

Address: Lagos Nigeria

Satellite view of DNMM